createdAt,value
2023-04-26T00:01:32.096Z,1.60
2023-04-26T00:03:59.015Z,1.52
2023-04-26T00:06:27.340Z,1.50
2023-04-26T00:08:55.004Z,1.42
2023-04-26T00:11:23.066Z,1.45
2023-04-26T00:13:50.033Z,1.60
2023-04-26T00:16:18.469Z,1.45
2023-04-26T00:18:46.436Z,1.63
2023-04-26T00:21:13.420Z,1.73
2023-04-26T00:23:40.127Z,1.80
2023-04-26T00:26:06.817Z,1.63
2023-04-26T00:28:34.527Z,2.10
2023-04-26T00:31:01.722Z,1.73
2023-04-26T00:33:28.551Z,2.20
2023-04-26T00:35:56.410Z,1.67
2023-04-26T00:38:23.255Z,1.70
2023-04-26T00:40:51.470Z,2.10
2023-04-26T00:43:18.592Z,2.03
2023-04-26T00:45:46.084Z,1.77
2023-04-26T00:48:13.214Z,2.10
2023-04-26T00:50:40.149Z,2.17
2023-04-26T00:53:08.922Z,2.28
2023-04-26T00:55:36.200Z,2.25
2023-04-26T00:58:03.082Z,2.70
2023-04-26T01:00:29.826Z,2.40
2023-04-26T01:02:57.986Z,2.90
2023-04-26T01:05:24.963Z,2.80
2023-04-26T01:07:52.678Z,2.78
2023-04-26T01:10:19.724Z,3.15
2023-04-26T01:12:46.981Z,2.90
2023-04-26T01:15:18.239Z,3.22
2023-04-26T01:17:47.571Z,3.10
2023-04-26T01:20:14.773Z,3.33
2023-04-26T01:22:41.842Z,3.15
2023-04-26T01:25:12.405Z,3.20
2023-04-26T01:27:39.866Z,3.00
2023-04-26T01:30:07.262Z,2.78
2023-04-26T01:32:35.049Z,2.92
2023-04-26T01:35:02.333Z,2.80
2023-04-26T01:37:29.103Z,2.40
2023-04-26T01:39:59.245Z,2.63
2023-04-26T01:42:26.482Z,2.60
2023-04-26T01:44:53.281Z,2.97
2023-04-26T01:47:20.129Z,2.90
2023-04-26T01:49:46.875Z,2.42
2023-04-26T01:52:13.657Z,3.00
2023-04-26T01:54:41.681Z,2.60
2023-04-26T01:57:08.727Z,3.10
2023-04-26T01:59:35.557Z,2.63
2023-04-26T02:02:02.443Z,2.75
2023-04-26T02:04:29.304Z,3.00
2023-04-26T02:06:57.276Z,2.60
2023-04-26T02:09:24.158Z,3.42
2023-04-26T02:11:50.908Z,3.00
2023-04-26T02:14:17.687Z,3.00
2023-04-26T02:16:44.999Z,3.60
2023-04-26T02:19:13.529Z,3.30
2023-04-26T02:21:58.014Z,3.40
2023-04-26T02:24:25.922Z,3.10
2023-04-26T02:26:54.538Z,3.28
2023-04-26T02:29:32.685Z,3.38
2023-04-26T02:32:07.820Z,3.33
2023-04-26T02:34:36.405Z,3.30
2023-04-26T02:37:03.225Z,3.30
2023-04-26T02:39:30.098Z,3.28
2023-04-26T02:41:57.733Z,3.35
2023-04-26T02:44:24.572Z,3.80
2023-04-26T02:46:51.689Z,3.25
2023-04-26T02:49:18.632Z,3.60
2023-04-26T02:51:45.705Z,3.83
2023-04-26T02:54:12.466Z,3.47
2023-04-26T02:56:39.729Z,3.88
2023-04-26T02:59:07.293Z,3.92
2023-04-26T03:01:34.333Z,4.07
2023-04-26T03:04:01.398Z,3.97
2023-04-26T03:06:29.873Z,4.13
2023-04-26T03:08:56.553Z,3.45
2023-04-26T03:11:23.547Z,4.05
2023-04-26T03:13:50.434Z,4.30
2023-04-26T03:16:20.682Z,3.78
2023-04-26T03:18:47.459Z,3.72
2023-04-26T03:21:14.519Z,4.20
2023-04-26T03:23:41.686Z,3.47
2023-04-26T03:26:09.345Z,3.50
2023-04-26T03:28:36.358Z,3.85
2023-04-26T03:31:03.390Z,3.63
2023-04-26T03:33:32.211Z,4.18
2023-04-26T03:35:59.113Z,3.95
2023-04-26T03:38:26.170Z,3.90
2023-04-26T03:40:53.025Z,3.80
2023-04-26T03:43:19.881Z,3.95
2023-04-26T03:45:50.427Z,3.42
2023-04-26T03:48:17.409Z,4.05
2023-04-26T03:50:46.060Z,3.63
2023-04-26T03:53:13.301Z,3.20
2023-04-26T03:55:40.286Z,3.45
2023-04-26T03:58:08.185Z,4.85
2023-04-26T04:00:38.116Z,3.83
2023-04-26T04:03:06.982Z,3.50
2023-04-26T04:05:34.226Z,4.13
2023-04-26T04:08:01.869Z,3.67
2023-04-26T04:10:29.180Z,3.63
2023-04-26T04:12:56.163Z,4.30
2023-04-26T04:15:23.493Z,3.90
2023-04-26T04:17:51.188Z,4.20
2023-04-26T04:20:18.026Z,4.30
2023-04-26T04:22:45.040Z,4.10
2023-04-26T04:25:11.913Z,4.07
2023-04-26T04:27:42.449Z,3.70
2023-04-26T04:30:10.102Z,3.92
2023-04-26T04:32:37.080Z,4.32
2023-04-26T04:35:05.315Z,3.78
2023-04-26T04:37:35.008Z,4.07
2023-04-26T04:40:02.417Z,3.72
2023-04-26T04:42:32.468Z,4.15
2023-04-26T04:45:00.389Z,4.32
2023-04-26T04:47:28.826Z,4.18
2023-04-26T04:49:56.492Z,4.15
2023-04-26T04:52:23.218Z,4.47
2023-04-26T04:54:49.979Z,4.40
2023-04-26T04:57:16.976Z,4.35
2023-04-26T04:59:45.383Z,3.75
2023-04-26T05:02:12.357Z,4.47
2023-04-26T05:04:39.541Z,4.38
2023-04-26T05:07:06.837Z,4.35
2023-04-26T05:09:35.251Z,4.32
2023-04-26T05:12:03.426Z,4.18
2023-04-26T05:14:31.489Z,3.78
2023-04-26T05:16:58.414Z,4.25
2023-04-26T05:19:25.998Z,3.92
2023-04-26T05:21:53.261Z,3.88
2023-04-26T05:24:20.050Z,3.55
2023-04-26T05:26:47.342Z,3.80
2023-04-26T05:29:32.649Z,3.30
2023-04-26T05:32:05.975Z,3.40
2023-04-26T05:34:42.103Z,3.90
2023-04-26T05:37:12.711Z,3.55
2023-04-26T05:39:39.503Z,4.00
2023-04-26T05:42:06.966Z,3.47
2023-04-26T05:44:33.858Z,3.47
2023-04-26T05:47:01.831Z,3.42
2023-04-26T05:49:28.626Z,3.40
2023-04-26T05:51:55.361Z,3.45
2023-04-26T05:54:22.214Z,3.10
2023-04-26T05:56:48.972Z,3.38
2023-04-26T05:59:16.633Z,2.80
2023-04-26T06:01:43.835Z,2.95
2023-04-26T06:04:15.564Z,3.58
2023-04-26T06:06:56.168Z,3.03
2023-04-26T06:09:23.800Z,3.10
2023-04-26T06:11:50.610Z,3.55
2023-04-26T06:14:29.381Z,3.17
2023-04-26T06:16:59.432Z,3.33
2023-04-26T06:19:27.486Z,2.70
2023-04-26T06:21:55.562Z,3.03
2023-04-26T06:24:23.535Z,2.95
2023-04-26T06:26:50.408Z,2.95
2023-04-26T06:29:17.405Z,2.67
2023-04-26T06:31:44.306Z,2.78
2023-04-26T06:34:12.252Z,3.00
2023-04-26T06:36:39.223Z,3.25
2023-04-26T06:39:06.253Z,2.58
2023-04-26T06:41:33.614Z,2.90
2023-04-26T06:44:00.412Z,2.65
2023-04-26T06:46:30.966Z,2.70
2023-04-26T06:48:57.826Z,2.53
2023-04-26T06:51:25.288Z,2.28
2023-04-26T06:53:53.079Z,2.10
2023-04-26T06:56:20.038Z,2.22
2023-04-26T06:59:06.958Z,2.00
2023-04-26T07:01:35.539Z,1.60
2023-04-26T07:04:10.971Z,1.88
2023-04-26T07:06:39.240Z,1.73
2023-04-26T07:09:06.164Z,1.75
2023-04-26T07:11:32.885Z,1.98
2023-04-26T07:13:59.582Z,1.90
2023-04-26T07:16:27.136Z,1.90
2023-04-26T07:18:58.194Z,1.83
2023-04-26T07:21:26.823Z,1.83
2023-04-26T07:23:55.675Z,1.83
2023-04-26T07:26:23.668Z,1.60
2023-04-26T07:28:53.911Z,1.38
2023-04-26T07:31:21.295Z,1.55
2023-04-26T07:33:48.146Z,1.40
2023-04-26T07:36:15.201Z,1.60
2023-04-26T07:38:42.454Z,1.83
2023-04-26T07:41:09.184Z,1.60
2023-04-26T07:43:36.114Z,1.50
2023-04-26T07:46:03.020Z,1.48
2023-04-26T07:48:29.769Z,1.67
2023-04-26T07:50:56.738Z,1.08
2023-04-26T07:53:23.473Z,1.50
2023-04-26T07:55:51.471Z,1.63
2023-04-26T07:58:19.397Z,1.38
2023-04-26T08:00:46.237Z,1.50
2023-04-26T08:03:17.960Z,1.33
2023-04-26T08:05:45.620Z,2.20
2023-04-26T08:08:12.757Z,1.60
2023-04-26T08:10:42.826Z,1.40
2023-04-26T08:13:09.632Z,1.55
2023-04-26T08:15:36.843Z,1.75
2023-04-26T08:18:03.874Z,1.70
2023-04-26T08:20:32.545Z,1.70
2023-04-26T08:22:59.916Z,2.33
2023-04-26T08:25:26.739Z,1.65
2023-04-26T08:27:53.749Z,2.47
2023-04-26T08:30:23.858Z,1.70
2023-04-26T08:32:51.102Z,2.10
2023-04-26T08:35:17.987Z,1.95
2023-04-26T08:37:45.086Z,1.90
2023-04-26T08:40:12.233Z,1.95
2023-04-26T08:42:44.804Z,2.22
2023-04-26T08:45:11.781Z,2.63
2023-04-26T08:47:48.481Z,2.45
2023-04-26T08:50:16.919Z,2.42
2023-04-26T08:52:44.646Z,2.28
2023-04-26T08:55:13.095Z,2.00
2023-04-26T08:57:43.613Z,2.00
2023-04-26T09:00:14.604Z,2.10
2023-04-26T09:02:52.207Z,2.08
2023-04-26T09:05:24.820Z,2.10
2023-04-26T09:07:56.654Z,2.20
2023-04-26T09:10:24.091Z,2.00
2023-04-26T09:12:54.926Z,2.25
2023-04-26T09:15:23.161Z,2.40
2023-04-26T09:17:51.828Z,2.13
2023-04-26T09:20:19.274Z,2.00
2023-04-26T09:22:46.490Z,2.40
2023-04-26T09:25:14.147Z,2.30
2023-04-26T09:27:46.363Z,2.30
2023-04-26T09:30:17.604Z,2.65
2023-04-26T09:32:58.996Z,2.10
2023-04-26T09:35:29.204Z,2.40
2023-04-26T09:38:07.804Z,2.10
2023-04-26T09:40:41.828Z,2.08
2023-04-26T09:43:14.430Z,2.00
2023-04-26T09:45:50.461Z,2.47
2023-04-26T09:48:22.337Z,2.53
2023-04-26T09:50:54.848Z,2.25
2023-04-26T09:53:31.397Z,2.22
2023-04-26T09:56:10.731Z,2.38
2023-04-26T09:59:02.630Z,2.20
2023-04-26T10:01:30.679Z,2.30
2023-04-26T10:03:58.261Z,2.20
2023-04-26T10:06:25.747Z,2.10
2023-04-26T10:08:52.751Z,2.30
2023-04-26T10:11:21.717Z,2.10
2023-04-26T10:13:51.827Z,2.05
2023-04-26T10:16:20.988Z,2.17
2023-04-26T10:18:48.215Z,1.85
2023-04-26T10:21:17.256Z,2.13
2023-04-26T10:23:44.807Z,2.35
2023-04-26T10:26:53.157Z,2.67
2023-04-26T10:29:24.285Z,2.15
2023-04-26T10:32:06.636Z,2.13
2023-04-26T10:34:35.308Z,1.70
2023-04-26T10:37:14.191Z,2.08
2023-04-26T10:39:42.757Z,1.60
2023-04-26T10:42:26.827Z,2.03
2023-04-26T10:44:57.513Z,1.95
2023-04-26T10:47:37.297Z,2.00
2023-04-26T10:50:11.531Z,1.92
2023-04-26T10:52:59.327Z,1.60
2023-04-26T10:55:40.448Z,2.28
2023-04-26T10:58:28.360Z,1.92
2023-04-26T11:01:19.072Z,1.60
2023-04-26T11:03:58.984Z,1.90
2023-04-26T11:06:26.949Z,2.08
2023-04-26T11:08:54.639Z,1.92
2023-04-26T11:11:26.491Z,1.50
2023-04-26T11:13:53.917Z,1.70
2023-04-26T11:16:20.769Z,1.60
2023-04-26T11:18:48.517Z,1.73
2023-04-26T11:21:19.619Z,1.85
2023-04-26T11:23:56.038Z,1.98
2023-04-26T11:26:23.083Z,1.90
2023-04-26T11:28:49.828Z,1.40
2023-04-26T11:31:18.923Z,1.50
2023-04-26T11:33:46.425Z,1.85
2023-04-26T11:36:14.270Z,1.42
2023-04-26T11:38:41.278Z,1.58
2023-04-26T11:41:08.105Z,1.60
2023-04-26T11:43:39.200Z,1.55
2023-04-26T11:46:07.779Z,2.05
2023-04-26T11:48:37.703Z,1.30
2023-04-26T11:53:41.195Z,1.63
2023-04-26T11:56:19.138Z,1.33
2023-04-26T11:58:53.426Z,1.38
2023-04-26T12:01:25.475Z,1.40
2023-04-26T12:03:54.630Z,1.70
2023-04-26T12:06:29.280Z,1.75
2023-04-26T12:08:58.510Z,1.10
2023-04-26T12:11:27.118Z,1.25
2023-04-26T12:13:53.888Z,1.38
2023-04-26T12:16:26.734Z,1.40
2023-04-26T12:18:55.443Z,1.50
2023-04-26T12:21:22.769Z,1.20
2023-04-26T12:23:49.705Z,1.63
2023-04-26T12:26:16.659Z,1.42
2023-04-26T12:28:44.049Z,1.30
2023-04-26T12:31:10.807Z,1.17
2023-04-26T12:33:37.619Z,1.48
2023-04-26T12:36:09.887Z,1.73
2023-04-26T12:38:37.277Z,1.10
2023-04-26T12:41:05.256Z,1.35
2023-04-26T12:43:32.073Z,1.38
2023-04-26T12:45:58.870Z,1.45
2023-04-26T12:48:25.724Z,1.30
2023-04-26T12:50:52.500Z,1.17
2023-04-26T12:53:19.334Z,1.17
2023-04-26T12:55:46.343Z,1.30
2023-04-26T12:58:13.304Z,1.45
2023-04-26T13:00:40.287Z,1.00
2023-04-26T13:03:07.776Z,0.95
2023-04-26T13:05:34.936Z,1.30
2023-04-26T13:08:02.303Z,1.52
2023-04-26T13:10:29.141Z,1.25
2023-04-26T13:12:57.891Z,1.30
2023-04-26T13:15:26.920Z,1.27
2023-04-26T13:17:54.264Z,1.30
2023-04-26T13:20:22.329Z,1.33
2023-04-26T13:22:51.340Z,1.20
2023-04-26T13:25:19.214Z,1.20
2023-04-26T13:27:46.443Z,1.20
2023-04-26T13:30:13.917Z,1.02
2023-04-26T13:32:40.924Z,1.13
2023-04-26T13:35:08.742Z,1.30
2023-04-26T13:37:35.777Z,0.93
2023-04-26T13:40:03.969Z,1.10
2023-04-26T13:42:30.940Z,1.00
2023-04-26T13:44:57.674Z,1.20
2023-04-26T13:47:24.453Z,1.15
2023-04-26T13:49:51.311Z,1.15
2023-04-26T13:52:18.369Z,1.30
2023-04-26T13:54:45.168Z,1.60
2023-04-26T13:57:11.902Z,1.42
2023-04-26T13:59:40.351Z,1.50
2023-04-26T14:02:07.527Z,1.13
2023-04-26T14:04:34.620Z,1.48
2023-04-26T14:07:01.509Z,1.48
2023-04-26T14:09:28.196Z,1.50
2023-04-26T14:12:07.227Z,1.48
2023-04-26T14:14:36.028Z,1.40
2023-04-26T14:17:02.842Z,1.10
2023-04-26T14:19:29.583Z,1.70
2023-04-26T14:21:56.296Z,1.50
2023-04-26T14:24:23.161Z,1.20
2023-04-26T14:26:50.005Z,1.50
2023-04-26T14:29:16.782Z,1.63
2023-04-26T14:31:43.563Z,1.48
2023-04-26T14:34:10.501Z,1.50
2023-04-26T14:36:37.324Z,1.45
2023-04-26T14:39:04.356Z,1.48
2023-04-26T14:41:31.122Z,1.40
2023-04-26T14:43:57.907Z,1.60
2023-04-26T14:46:24.667Z,1.30
2023-04-26T14:48:51.564Z,1.38
2023-04-26T14:51:18.326Z,1.15
2023-04-26T14:53:45.009Z,1.83
2023-04-26T14:56:12.207Z,1.35
2023-04-26T14:58:39.271Z,1.25
2023-04-26T15:01:06.296Z,1.20
2023-04-26T15:03:33.630Z,1.27
2023-04-26T15:06:00.583Z,1.10
2023-04-26T15:08:27.295Z,1.00
2023-04-26T15:10:54.131Z,1.30
2023-04-26T15:13:20.984Z,1.15
2023-04-26T15:15:47.936Z,1.30
2023-04-26T15:18:14.943Z,1.00
2023-04-26T15:20:41.733Z,1.00
2023-04-26T15:23:09.209Z,1.00
2023-04-26T15:25:37.252Z,1.17
2023-04-26T15:28:04.546Z,0.90
2023-04-26T15:30:31.387Z,1.00
2023-04-26T15:32:58.789Z,0.90
2023-04-26T15:35:25.837Z,1.10
2023-04-26T15:37:54.100Z,1.27
2023-04-26T15:40:24.785Z,1.40
2023-04-26T15:42:52.164Z,0.90
2023-04-26T15:45:20.006Z,1.13
2023-04-26T15:47:47.311Z,1.17
2023-04-26T15:50:14.367Z,1.20
2023-04-26T15:52:41.410Z,1.40
2023-04-26T15:55:08.383Z,1.30
2023-04-26T15:57:35.535Z,1.55
2023-04-26T16:00:02.391Z,1.30
2023-04-26T16:02:31.580Z,1.02
2023-04-26T16:04:58.537Z,1.20
2023-04-26T16:07:25.556Z,1.33
2023-04-26T16:09:52.611Z,1.25
2023-04-26T16:12:19.353Z,1.40
2023-04-26T16:14:46.084Z,1.33
2023-04-26T16:17:12.915Z,1.48
2023-04-26T16:19:39.796Z,1.40
2023-04-26T16:22:06.609Z,1.33
2023-04-26T16:24:33.315Z,1.17
2023-04-26T16:27:00.130Z,1.20
2023-04-26T16:29:27.176Z,1.20
2023-04-26T16:31:54.151Z,1.23
2023-04-26T16:34:21.028Z,1.45
2023-04-26T16:36:47.774Z,1.00
2023-04-26T16:39:16.152Z,1.58
2023-04-26T16:41:43.373Z,1.30
2023-04-26T16:44:10.309Z,1.20
2023-04-26T16:46:37.532Z,1.10
2023-04-26T16:49:09.455Z,1.20
2023-04-26T16:51:38.004Z,1.40
2023-04-26T16:54:05.028Z,1.50
2023-04-26T16:56:32.354Z,1.50
2023-04-26T16:58:59.562Z,1.45
2023-04-26T17:01:26.549Z,1.38
2023-04-26T17:03:54.179Z,1.30
2023-04-26T17:06:21.234Z,1.40
2023-04-26T17:08:48.111Z,1.67
2023-04-26T17:11:15.962Z,1.45
2023-04-26T17:13:43.010Z,1.70
2023-04-26T17:16:09.786Z,1.30
2023-04-26T17:18:37.232Z,1.40
2023-04-26T17:21:07.518Z,1.60
2023-04-26T17:23:34.663Z,1.70
2023-04-26T17:26:02.095Z,1.80
2023-04-26T17:28:29.234Z,1.60
2023-04-26T17:30:56.019Z,1.40
2023-04-26T17:33:23.507Z,1.48
2023-04-26T17:35:50.637Z,1.73
2023-04-26T17:38:17.458Z,1.48
2023-04-26T17:40:44.148Z,1.10
2023-04-26T17:43:11.603Z,1.50
2023-04-26T17:45:38.372Z,1.70
2023-04-26T17:48:05.701Z,2.03
2023-04-26T17:50:32.768Z,2.00
2023-04-26T17:52:59.492Z,1.58
2023-04-26T17:55:26.203Z,1.48
2023-04-26T17:57:52.887Z,1.70
2023-04-26T18:00:19.964Z,1.55
2023-04-26T18:02:47.494Z,1.60
2023-04-26T18:05:14.547Z,1.80
2023-04-26T18:07:41.330Z,1.70
2023-04-26T18:10:08.825Z,1.90
2023-04-26T18:12:36.282Z,1.30
2023-04-26T18:15:03.293Z,1.88
2023-04-26T18:17:30.253Z,1.63
2023-04-26T18:19:57.296Z,1.75
2023-04-26T18:22:23.990Z,1.70
2023-04-26T18:24:50.865Z,1.55
2023-04-26T18:27:17.613Z,1.90
2023-04-26T18:29:44.455Z,2.05
2023-04-26T18:32:11.273Z,1.30
2023-04-26T18:34:38.193Z,1.40
2023-04-26T18:37:05.234Z,1.50
2023-04-26T18:39:32.030Z,1.83
2023-04-26T18:41:58.750Z,1.58
2023-04-26T18:44:25.408Z,1.58
2023-04-26T18:46:55.763Z,1.70
2023-04-26T18:49:23.721Z,1.88
2023-04-26T18:51:50.427Z,1.70
2023-04-26T18:54:17.308Z,2.20
2023-04-26T18:56:44.935Z,2.00
2023-04-26T18:59:11.847Z,1.55
2023-04-26T19:01:38.787Z,2.10
2023-04-26T19:04:06.124Z,1.85
2023-04-26T19:06:33.164Z,1.80
2023-04-26T19:09:01.025Z,1.63
2023-04-26T19:11:27.713Z,1.58
2023-04-26T19:13:54.518Z,1.48
2023-04-26T19:16:21.606Z,1.60
2023-04-26T19:18:49.122Z,1.40
2023-04-26T19:21:16.358Z,1.75
2023-04-26T19:23:44.813Z,1.52
2023-04-26T19:26:12.874Z,1.88
2023-04-26T19:28:40.056Z,1.85
2023-04-26T19:31:06.902Z,2.80
2023-04-26T19:33:34.075Z,2.60
2023-04-26T19:36:01.231Z,2.83
2023-04-26T19:38:28.748Z,2.63
2023-04-26T19:40:55.418Z,2.78
2023-04-26T19:43:22.178Z,2.67
2023-04-26T19:45:48.973Z,3.10
2023-04-26T19:48:16.002Z,2.67
2023-04-26T19:50:44.865Z,2.67
2023-04-26T19:53:13.226Z,2.22
2023-04-26T19:55:41.490Z,2.30
2023-04-26T19:58:08.708Z,2.30
2023-04-26T20:00:39.148Z,2.47
2023-04-26T20:03:06.699Z,2.15
2023-04-26T20:05:34.198Z,2.00
2023-04-26T20:08:01.641Z,1.98
2023-04-26T20:10:33.737Z,2.00
2023-04-26T20:13:00.937Z,2.30
2023-04-26T20:15:28.226Z,2.13
2023-04-26T20:17:55.231Z,2.45
2023-04-26T20:20:22.132Z,2.15
2023-04-26T20:22:49.044Z,2.13
2023-04-26T20:25:15.977Z,2.03
2023-04-26T20:27:42.795Z,2.20
2023-04-26T20:30:10.109Z,2.00
2023-04-26T20:32:36.946Z,2.10
2023-04-26T20:35:04.697Z,2.28
2023-04-26T20:37:32.001Z,2.60
2023-04-26T20:39:58.962Z,2.70
2023-04-26T20:42:25.724Z,2.80
2023-04-26T20:44:52.500Z,2.75
2023-04-26T20:47:19.512Z,2.50
2023-04-26T20:49:46.471Z,2.33
2023-04-26T20:52:13.186Z,2.42
2023-04-26T20:54:39.889Z,2.65
2023-04-26T20:57:06.744Z,2.83
2023-04-26T20:59:33.412Z,2.15
2023-04-26T21:02:00.147Z,2.55
2023-04-26T21:04:27.220Z,3.00
2023-04-26T21:06:54.080Z,2.70
2023-04-26T21:09:21.611Z,2.55
2023-04-26T21:11:48.379Z,2.58
2023-04-26T21:14:15.148Z,3.15
2023-04-26T21:16:41.917Z,2.80
2023-04-26T21:19:08.954Z,3.20
2023-04-26T21:21:35.785Z,3.13
2023-04-26T21:24:03.969Z,2.90
2023-04-26T21:26:30.751Z,3.83
2023-04-26T21:28:57.718Z,3.60
2023-04-26T21:31:24.635Z,4.07
2023-04-26T21:33:51.485Z,3.50
2023-04-26T21:36:18.486Z,3.75
2023-04-26T21:38:45.394Z,3.70
2023-04-26T21:41:12.117Z,3.20
2023-04-26T21:43:38.806Z,3.03
2023-04-26T21:46:06.610Z,3.38
2023-04-26T21:48:33.769Z,3.30
2023-04-26T21:51:00.463Z,3.00
2023-04-26T21:53:27.226Z,3.47
2023-04-26T21:55:54.355Z,4.72
2023-04-26T21:58:21.928Z,4.45
2023-04-26T22:00:49.415Z,5.65
2023-04-26T22:03:17.198Z,6.57
2023-04-26T22:05:44.210Z,6.25
2023-04-26T22:08:10.980Z,5.80
2023-04-26T22:10:37.679Z,3.80
2023-04-26T22:13:05.356Z,4.03
2023-04-26T22:15:32.243Z,3.67
2023-04-26T22:17:59.342Z,4.30
2023-04-26T22:20:26.617Z,3.95
2023-04-26T22:22:53.915Z,3.60
2023-04-26T22:25:21.134Z,3.85
2023-04-26T22:27:48.504Z,4.38
2023-04-26T22:30:25.295Z,4.30
2023-04-26T22:32:54.844Z,4.40
2023-04-26T22:35:23.087Z,3.85
2023-04-26T22:37:50.192Z,3.65
2023-04-26T22:40:17.432Z,3.58
2023-04-26T22:42:44.357Z,4.00
2023-04-26T22:45:12.397Z,3.90
2023-04-26T22:47:40.208Z,4.20
2023-04-26T22:50:08.127Z,5.10
2023-04-26T22:52:35.801Z,5.00
2023-04-26T22:55:02.921Z,4.97
2023-04-26T22:57:31.209Z,4.38
2023-04-26T22:59:58.225Z,4.15
2023-04-26T23:02:25.180Z,4.13
2023-04-26T23:04:52.102Z,4.63
2023-04-26T23:07:18.923Z,3.50
2023-04-26T23:09:45.744Z,4.20
2023-04-26T23:12:18.508Z,3.38
2023-04-26T23:14:45.479Z,3.45
2023-04-26T23:17:12.279Z,3.72
2023-04-26T23:19:39.018Z,2.88
2023-04-26T23:22:05.682Z,3.03
2023-04-26T23:24:32.347Z,3.40
2023-04-26T23:26:59.046Z,3.47
2023-04-26T23:29:25.766Z,3.35
2023-04-26T23:31:52.798Z,3.20
2023-04-26T23:34:19.526Z,3.15
2023-04-26T23:36:46.254Z,2.88
2023-04-26T23:39:13.087Z,3.42
2023-04-26T23:41:39.922Z,3.40
2023-04-26T23:44:07.287Z,3.22
2023-04-26T23:46:34.333Z,3.20
2023-04-26T23:49:01.214Z,3.75
2023-04-26T23:51:28.026Z,3.10
2023-04-26T23:53:54.763Z,3.47
2023-04-26T23:56:21.473Z,3.60
2023-04-26T23:58:48.204Z,3.15
